sensor_id;sensor_type;location;lat;lon;timestamp;pressure;altitude;pressure_sealevel;temperature;humidity
13367;BME280;6752;52.612;13.630;2023-03-18T00:03:27;100436.17;;;8.81;65.10
13367;BME280;6752;52.612;13.630;2023-03-18T00:08:30;100434.69;;;8.85;64.54
13367;BME280;6752;52.612;13.630;2023-03-18T00:13:32;100444.13;;;8.73;65.02
13367;BME280;6752;52.612;13.630;2023-03-18T00:18:34;100443.80;;;8.75;64.59
13367;BME280;6752;52.612;13.630;2023-03-18T00:23:37;100439.73;;;8.75;65.03
13367;BME280;6752;52.612;13.630;2023-03-18T00:28:39;100435.98;;;8.69;64.28
13367;BME280;6752;52.612;13.630;2023-03-18T00:33:42;100429.83;;;8.68;64.62
13367;BME280;6752;52.612;13.630;2023-03-18T00:38:45;100432.02;;;8.69;64.37
13367;BME280;6752;52.612;13.630;2023-03-18T00:43:47;100430.08;;;8.60;65.16
13367;BME280;6752;52.612;13.630;2023-03-18T00:48:56;100427.28;;;8.48;65.48
13367;BME280;6752;52.612;13.630;2023-03-18T00:54:02;100410.98;;;8.54;65.16
13367;BME280;6752;52.612;13.630;2023-03-18T00:59:07;100418.33;;;8.40;66.01
13367;BME280;6752;52.612;13.630;2023-03-18T01:04:10;100411.54;;;8.30;66.37
13367;BME280;6752;52.612;13.630;2023-03-18T01:09:13;100417.60;;;8.29;65.97
13367;BME280;6752;52.612;13.630;2023-03-18T01:14:16;100416.55;;;8.21;66.71
13367;BME280;6752;52.612;13.630;2023-03-18T01:19:18;100408.72;;;8.21;66.16
13367;BME280;6752;52.612;13.630;2023-03-18T01:24:20;100409.48;;;8.09;66.85
13367;BME280;6752;52.612;13.630;2023-03-18T01:29:23;100418.76;;;8.04;67.82
13367;BME280;6752;52.612;13.630;2023-03-18T01:34:28;100405.30;;;8.00;66.99
13367;BME280;6752;52.612;13.630;2023-03-18T01:39:30;100403.21;;;8.02;66.29
13367;BME280;6752;52.612;13.630;2023-03-18T01:44:33;100405.42;;;8.06;66.04
13367;BME280;6752;52.612;13.630;2023-03-18T01:49:39;100403.01;;;8.10;65.80
13367;BME280;6752;52.612;13.630;2023-03-18T01:54:42;100397.17;;;7.97;66.90
13367;BME280;6752;52.612;13.630;2023-03-18T01:59:43;100400.31;;;7.94;67.22
13367;BME280;6752;52.612;13.630;2023-03-18T02:04:52;100389.75;;;7.98;65.74
13367;BME280;6752;52.612;13.630;2023-03-18T02:09:54;100384.95;;;8.00;65.62
13367;BME280;6752;52.612;13.630;2023-03-18T02:14:56;100392.27;;;8.06;65.57
13367;BME280;6752;52.612;13.630;2023-03-18T02:20:28;100402.47;;;8.04;66.34
13367;BME280;6752;52.612;13.630;2023-03-18T02:25:49;100395.50;;;8.09;64.49
13367;BME280;6752;52.612;13.630;2023-03-18T02:31:05;100390.28;;;7.94;65.52
13367;BME280;6752;52.612;13.630;2023-03-18T02:36:08;100394.55;;;8.03;65.01
13367;BME280;6752;52.612;13.630;2023-03-18T02:41:22;100396.77;;;7.93;65.32
13367;BME280;6752;52.612;13.630;2023-03-18T02:46:57;100396.03;;;7.92;65.82
13367;BME280;6752;52.612;13.630;2023-03-18T02:51:56;100389.37;;;7.85;65.81
13367;BME280;6752;52.612;13.630;2023-03-18T02:56:58;100384.88;;;7.88;65.54
13367;BME280;6752;52.612;13.630;2023-03-18T03:02:01;100383.11;;;7.84;66.77
13367;BME280;6752;52.612;13.630;2023-03-18T03:07:04;100384.45;;;7.74;66.94
13367;BME280;6752;52.612;13.630;2023-03-18T03:12:06;100378.91;;;7.78;66.69
13367;BME280;6752;52.612;13.630;2023-03-18T03:17:09;100374.77;;;7.59;67.53
13367;BME280;6752;52.612;13.630;2023-03-18T03:22:11;100380.61;;;7.63;67.20
13367;BME280;6752;52.612;13.630;2023-03-18T03:27:14;100384.48;;;7.58;67.92
13367;BME280;6752;52.612;13.630;2023-03-18T03:32:16;100388.31;;;7.49;68.35
13367;BME280;6752;52.612;13.630;2023-03-18T03:37:18;100395.19;;;7.55;67.28
13367;BME280;6752;52.612;13.630;2023-03-18T03:42:21;100401.58;;;7.65;66.56
13367;BME280;6752;52.612;13.630;2023-03-18T03:47:23;100395.53;;;7.63;66.09
13367;BME280;6752;52.612;13.630;2023-03-18T03:52:30;100401.57;;;7.72;65.64
13367;BME280;6752;52.612;13.630;2023-03-18T03:57:32;100400.22;;;7.65;65.95
13367;BME280;6752;52.612;13.630;2023-03-18T04:02:34;100391.05;;;7.59;66.69
13367;BME280;6752;52.612;13.630;2023-03-18T04:07:37;100393.42;;;7.52;67.70
13367;BME280;6752;52.612;13.630;2023-03-18T04:12:39;100400.09;;;7.49;68.52
13367;BME280;6752;52.612;13.630;2023-03-18T04:17:42;100407.09;;;7.51;68.03
13367;BME280;6752;52.612;13.630;2023-03-18T04:22:44;100407.72;;;7.50;67.41
13367;BME280;6752;52.612;13.630;2023-03-18T04:27:47;100405.45;;;7.60;67.40
13367;BME280;6752;52.612;13.630;2023-03-18T04:32:49;100420.55;;;7.42;68.41
13367;BME280;6752;52.612;13.630;2023-03-18T04:37:54;100423.15;;;7.43;68.53
13367;BME280;6752;52.612;13.630;2023-03-18T04:42:57;100428.88;;;7.34;69.19
13367;BME280;6752;52.612;13.630;2023-03-18T04:47:59;100418.45;;;7.34;68.75
13367;BME280;6752;52.612;13.630;2023-03-18T04:53:03;100429.78;;;7.23;69.55
13367;BME280;6752;52.612;13.630;2023-03-18T04:58:05;100437.18;;;7.19;70.00
13367;BME280;6752;52.612;13.630;2023-03-18T05:03:08;100441.24;;;7.19;70.31
13367;BME280;6752;52.612;13.630;2023-03-18T05:08:10;100440.20;;;7.13;70.47
13367;BME280;6752;52.612;13.630;2023-03-18T05:13:14;100429.98;;;7.12;70.43
13367;BME280;6752;52.612;13.630;2023-03-18T05:18:16;100433.25;;;6.98;71.33
13367;BME280;6752;52.612;13.630;2023-03-18T05:23:18;100428.97;;;6.92;71.41
13367;BME280;6752;52.612;13.630;2023-03-18T05:28:39;100440.47;;;6.81;72.55
13367;BME280;6752;52.612;13.630;2023-03-18T05:33:41;100434.91;;;6.89;72.15
13367;BME280;6752;52.612;13.630;2023-03-18T05:38:44;100433.30;;;6.84;72.25
13367;BME280;6752;52.612;13.630;2023-03-18T05:43:54;100434.44;;;6.85;72.34
13367;BME280;6752;52.612;13.630;2023-03-18T05:48:57;100436.26;;;6.89;72.04
13367;BME280;6752;52.612;13.630;2023-03-18T05:53:59;100436.80;;;6.95;71.36
13367;BME280;6752;52.612;13.630;2023-03-18T05:59:02;100442.05;;;6.86;71.91
13367;BME280;6752;52.612;13.630;2023-03-18T06:04:04;100447.84;;;6.93;71.82
13367;BME280;6752;52.612;13.630;2023-03-18T06:09:07;100444.33;;;7.09;70.32
13367;BME280;6752;52.612;13.630;2023-03-18T06:14:17;100434.77;;;7.13;70.22
13367;BME280;6752;52.612;13.630;2023-03-18T06:19:19;100442.91;;;7.13;70.15
13367;BME280;6752;52.612;13.630;2023-03-18T06:24:22;100442.81;;;7.17;70.66
13367;BME280;6752;52.612;13.630;2023-03-18T06:29:24;100445.41;;;7.12;71.39
13367;BME280;6752;52.612;13.630;2023-03-18T06:34:26;100449.38;;;7.22;70.83
13367;BME280;6752;52.612;13.630;2023-03-18T06:39:28;100454.17;;;7.20;70.60
13367;BME280;6752;52.612;13.630;2023-03-18T06:44:31;100458.97;;;7.18;70.38
13367;BME280;6752;52.612;13.630;2023-03-18T06:49:33;100466.89;;;7.16;71.10
13367;BME280;6752;52.612;13.630;2023-03-18T06:54:36;100466.07;;;7.26;70.16
13367;BME280;6752;52.612;13.630;2023-03-18T06:59:39;100468.41;;;7.39;70.11
13367;BME280;6752;52.612;13.630;2023-03-18T07:04:41;100470.77;;;7.31;70.70
13367;BME280;6752;52.612;13.630;2023-03-18T07:09:44;100482.06;;;7.35;70.04
13367;BME280;6752;52.612;13.630;2023-03-18T07:14:47;100474.30;;;7.59;70.02
13367;BME280;6752;52.612;13.630;2023-03-18T07:19:49;100494.75;;;7.68;69.37
13367;BME280;6752;52.612;13.630;2023-03-18T07:25:01;100489.03;;;7.87;68.45
13367;BME280;6752;52.612;13.630;2023-03-18T07:30:03;100501.15;;;8.14;67.42
13367;BME280;6752;52.612;13.630;2023-03-18T07:35:07;100497.59;;;8.56;67.66
13367;BME280;6752;52.612;13.630;2023-03-18T07:40:09;100500.20;;;8.47;66.59
13367;BME280;6752;52.612;13.630;2023-03-18T07:45:24;100492.92;;;8.83;66.74
13367;BME280;6752;52.612;13.630;2023-03-18T07:50:26;100500.36;;;9.08;66.20
13367;BME280;6752;52.612;13.630;2023-03-18T07:55:29;100507.15;;;9.33;66.58
13367;BME280;6752;52.612;13.630;2023-03-18T08:00:31;100510.44;;;9.80;65.67
13367;BME280;6752;52.612;13.630;2023-03-18T08:05:34;100507.95;;;10.19;65.89
13367;BME280;6752;52.612;13.630;2023-03-18T08:10:37;100508.48;;;10.03;63.23
13367;BME280;6752;52.612;13.630;2023-03-18T08:15:39;100511.98;;;10.72;63.02
13367;BME280;6752;52.612;13.630;2023-03-18T08:20:42;100528.24;;;10.91;61.27
13367;BME280;6752;52.612;13.630;2023-03-18T08:25:47;100530.55;;;11.19;61.69
13367;BME280;6752;52.612;13.630;2023-03-18T08:30:52;100521.59;;;11.12;59.56
13367;BME280;6752;52.612;13.630;2023-03-18T08:35:52;100518.13;;;11.86;58.92
13367;BME280;6752;52.612;13.630;2023-03-18T08:40:57;100534.57;;;11.89;59.79
13367;BME280;6752;52.612;13.630;2023-03-18T08:46:00;100533.19;;;12.65;57.77
13367;BME280;6752;52.612;13.630;2023-03-18T08:51:05;100530.41;;;12.63;58.57
13367;BME280;6752;52.612;13.630;2023-03-18T08:56:07;100521.95;;;14.89;56.56
13367;BME280;6752;52.612;13.630;2023-03-18T09:01:10;100529.16;;;13.49;55.76
13367;BME280;6752;52.612;13.630;2023-03-18T09:06:12;100526.38;;;14.39;56.71
13367;BME280;6752;52.612;13.630;2023-03-18T09:11:15;100535.52;;;14.11;54.76
13367;BME280;6752;52.612;13.630;2023-03-18T09:16:18;100540.45;;;13.67;55.29
13367;BME280;6752;52.612;13.630;2023-03-18T09:21:20;100536.39;;;14.71;56.61
13367;BME280;6752;52.612;13.630;2023-03-18T09:26:24;100543.90;;;13.16;55.91
13367;BME280;6752;52.612;13.630;2023-03-18T09:31:26;100555.06;;;14.23;57.01
13367;BME280;6752;52.612;13.630;2023-03-18T09:36:28;100546.67;;;14.44;55.16
13367;BME280;6752;52.612;13.630;2023-03-18T09:52:15;100557.85;;;15.04;55.70
13367;BME280;6752;52.612;13.630;2023-03-18T09:57:21;100565.41;;;15.58;52.89
13367;BME280;6752;52.612;13.630;2023-03-18T10:02:24;100559.16;;;15.97;52.53
13367;BME280;6752;52.612;13.630;2023-03-18T10:07:27;100555.27;;;17.68;50.57
13367;BME280;6752;52.612;13.630;2023-03-18T10:12:34;100551.88;;;17.79;50.40
13367;BME280;6752;52.612;13.630;2023-03-18T10:17:43;100547.78;;;17.61;51.75
13367;BME280;6752;52.612;13.630;2023-03-18T10:23:08;100540.23;;;18.29;49.10
13367;BME280;6752;52.612;13.630;2023-03-18T10:33:45;100548.98;;;17.75;47.45
13367;BME280;6752;52.612;13.630;2023-03-18T10:38:47;100549.84;;;16.62;50.83
13367;BME280;6752;52.612;13.630;2023-03-18T10:43:48;100541.36;;;17.09;50.52
13367;BME280;6752;52.612;13.630;2023-03-18T10:48:59;100537.28;;;17.94;49.13
13367;BME280;6752;52.612;13.630;2023-03-18T10:54:02;100540.08;;;17.65;51.66
13367;BME280;6752;52.612;13.630;2023-03-18T10:59:15;100544.45;;;17.22;52.13
13367;BME280;6752;52.612;13.630;2023-03-18T11:04:17;100535.97;;;19.65;49.65
13367;BME280;6752;52.612;13.630;2023-03-18T11:09:20;100540.75;;;18.21;51.21
13367;BME280;6752;52.612;13.630;2023-03-18T11:14:26;100553.08;;;17.72;53.29
13367;BME280;6752;52.612;13.630;2023-03-18T11:19:31;100545.05;;;18.81;55.16
13367;BME280;6752;52.612;13.630;2023-03-18T11:24:35;100533.64;;;19.58;53.64
13367;BME280;6752;52.612;13.630;2023-03-18T11:29:38;100552.06;;;18.17;51.13
13367;BME280;6752;52.612;13.630;2023-03-18T11:34:40;100531.72;;;19.51;51.74
13367;BME280;6752;52.612;13.630;2023-03-18T11:39:42;100534.72;;;18.64;51.50
13367;BME280;6752;52.612;13.630;2023-03-18T11:44:46;100539.13;;;18.30;52.70
13367;BME280;6752;52.612;13.630;2023-03-18T11:49:48;100532.08;;;19.69;51.91
13367;BME280;6752;52.612;13.630;2023-03-18T11:55:08;100536.39;;;17.68;53.45
13367;BME280;6752;52.612;13.630;2023-03-18T12:00:17;100544.47;;;17.59;53.29
13367;BME280;6752;52.612;13.630;2023-03-18T12:05:28;100531.80;;;20.09;50.29
13367;BME280;6752;52.612;13.630;2023-03-18T12:10:28;100540.62;;;18.19;53.17
13367;BME280;6752;52.612;13.630;2023-03-18T12:26:18;100531.49;;;19.42;49.87
13367;BME280;6752;52.612;13.630;2023-03-18T12:36:45;100542.75;;;19.16;53.13
13367;BME280;6752;52.612;13.630;2023-03-18T12:41:49;100543.27;;;19.31;53.06
13367;BME280;6752;52.612;13.630;2023-03-18T12:46:51;100544.23;;;18.80;51.88
13367;BME280;6752;52.612;13.630;2023-03-18T12:52:01;100546.44;;;19.31;52.82
13367;BME280;6752;52.612;13.630;2023-03-18T12:57:06;100539.34;;;19.07;53.18
13367;BME280;6752;52.612;13.630;2023-03-18T13:07:48;100530.39;;;21.57;50.76
13367;BME280;6752;52.612;13.630;2023-03-18T13:12:55;100528.10;;;21.62;51.00
13367;BME280;6752;52.612;13.630;2023-03-18T13:17:58;100521.82;;;20.31;50.16
13367;BME280;6752;52.612;13.630;2023-03-18T13:23:02;100524.56;;;20.84;50.36
13367;BME280;6752;52.612;13.630;2023-03-18T13:49:37;100520.57;;;21.55;50.63
13367;BME280;6752;52.612;13.630;2023-03-18T13:54:39;100523.98;;;20.39;53.01
13367;BME280;6752;52.612;13.630;2023-03-18T13:59:43;100529.41;;;19.43;54.36
13367;BME280;6752;52.612;13.630;2023-03-18T14:04:50;100525.36;;;21.38;52.32
13367;BME280;6752;52.612;13.630;2023-03-18T14:35:46;100512.91;;;22.15;49.53
13367;BME280;6752;52.612;13.630;2023-03-18T14:40:43;100505.89;;;21.04;51.85
13367;BME280;6752;52.612;13.630;2023-03-18T14:45:46;100502.02;;;21.53;51.61
13367;BME280;6752;52.612;13.630;2023-03-18T14:50:52;100499.57;;;21.96;50.12
13367;BME280;6752;52.612;13.630;2023-03-18T14:55:54;100505.75;;;21.05;54.76
13367;BME280;6752;52.612;13.630;2023-03-18T15:01:01;100501.11;;;21.67;52.37
13367;BME280;6752;52.612;13.630;2023-03-18T15:06:01;100502.84;;;21.42;52.00
13367;BME280;6752;52.612;13.630;2023-03-18T15:11:03;100497.48;;;21.48;53.68
13367;BME280;6752;52.612;13.630;2023-03-18T15:16:05;100497.78;;;21.58;52.00
13367;BME280;6752;52.612;13.630;2023-03-18T15:21:15;100505.77;;;20.50;56.39
13367;BME280;6752;52.612;13.630;2023-03-18T15:26:24;100509.34;;;19.77;56.21
13367;BME280;6752;52.612;13.630;2023-03-18T15:31:29;100499.72;;;20.08;58.65
13367;BME280;6752;52.612;13.630;2023-03-18T15:36:28;100503.95;;;19.49;59.77
13367;BME280;6752;52.612;13.630;2023-03-18T15:41:30;100502.47;;;19.94;57.17
13367;BME280;6752;52.612;13.630;2023-03-18T15:46:33;100509.11;;;19.36;61.08
13367;BME280;6752;52.612;13.630;2023-03-18T15:51:41;100507.56;;;19.44;59.61
13367;BME280;6752;52.612;13.630;2023-03-18T15:56:41;100522.69;;;18.62;62.39
13367;BME280;6752;52.612;13.630;2023-03-18T16:01:40;100533.97;;;17.89;66.11
13367;BME280;6752;52.612;13.630;2023-03-18T16:06:43;100539.38;;;18.10;67.37
13367;BME280;6752;52.612;13.630;2023-03-18T16:11:55;100541.59;;;18.11;69.06
13367;BME280;6752;52.612;13.630;2023-03-18T16:16:56;100549.48;;;17.69;69.99
13367;BME280;6752;52.612;13.630;2023-03-18T16:21:58;100549.37;;;17.49;71.01
13367;BME280;6752;52.612;13.630;2023-03-18T16:27:02;100557.34;;;17.72;70.30
13367;BME280;6752;52.612;13.630;2023-03-18T16:32:03;100552.52;;;17.37;72.56
13367;BME280;6752;52.612;13.630;2023-03-18T16:37:05;100549.89;;;17.36;72.78
13367;BME280;6752;52.612;13.630;2023-03-18T16:42:08;100549.59;;;17.30;73.54
13367;BME280;6752;52.612;13.630;2023-03-18T16:47:15;100560.17;;;17.53;73.86
13367;BME280;6752;52.612;13.630;2023-03-18T16:52:13;100564.88;;;17.29;74.58
13367;BME280;6752;52.612;13.630;2023-03-18T16:57:19;100573.88;;;17.14;76.12
13367;BME280;6752;52.612;13.630;2023-03-18T17:02:33;100578.69;;;16.71;80.21
13367;BME280;6752;52.612;13.630;2023-03-18T17:07:35;100583.34;;;16.25;83.73
13367;BME280;6752;52.612;13.630;2023-03-18T17:12:38;100578.52;;;16.37;84.20
13367;BME280;6752;52.612;13.630;2023-03-18T17:17:40;100579.89;;;16.23;84.77
13367;BME280;6752;52.612;13.630;2023-03-18T17:22:43;100588.87;;;16.11;87.82
13367;BME280;6752;52.612;13.630;2023-03-18T17:27:46;100597.88;;;15.60;92.37
13367;BME280;6752;52.612;13.630;2023-03-18T17:32:48;100603.09;;;15.59;97.23
13367;BME280;6752;52.612;13.630;2023-03-18T17:37:50;100611.13;;;15.25;92.82
13367;BME280;6752;52.612;13.630;2023-03-18T17:42:52;100610.96;;;15.04;93.83
13367;BME280;6752;52.612;13.630;2023-03-18T17:47:57;100619.75;;;14.53;96.11
13367;BME280;6752;52.612;13.630;2023-03-18T17:52:56;100621.80;;;14.52;96.37
13367;BME280;6752;52.612;13.630;2023-03-18T17:57:59;100622.95;;;14.64;94.41
13367;BME280;6752;52.612;13.630;2023-03-18T18:03:01;100622.19;;;14.29;97.82
13367;BME280;6752;52.612;13.630;2023-03-18T18:08:08;100625.14;;;14.25;97.50
13367;BME280;6752;52.612;13.630;2023-03-18T18:13:11;100630.29;;;14.30;95.43
13367;BME280;6752;52.612;13.630;2023-03-18T18:18:14;100625.39;;;14.18;95.14
13367;BME280;6752;52.612;13.630;2023-03-18T18:23:29;100627.63;;;13.84;96.73
13367;BME280;6752;52.612;13.630;2023-03-18T18:28:20;100623.00;;;13.59;96.77
13367;BME280;6752;52.612;13.630;2023-03-18T18:33:21;100621.37;;;12.93;100.00
13367;BME280;6752;52.612;13.630;2023-03-18T18:38:24;100627.14;;;12.88;100.00
13367;BME280;6752;52.612;13.630;2023-03-18T18:43:29;100636.71;;;12.94;100.00
13367;BME280;6752;52.612;13.630;2023-03-18T18:48:35;100637.08;;;12.86;100.00
13367;BME280;6752;52.612;13.630;2023-03-18T18:53:38;100639.48;;;13.29;100.00
13367;BME280;6752;52.612;13.630;2023-03-18T18:58:40;100647.54;;;12.78;100.00
13367;BME280;6752;52.612;13.630;2023-03-18T19:03:45;100645.31;;;12.44;100.00
13367;BME280;6752;52.612;13.630;2023-03-18T19:08:48;100643.84;;;12.51;100.00
13367;BME280;6752;52.612;13.630;2023-03-18T19:13:50;100645.27;;;12.54;100.00
13367;BME280;6752;52.612;13.630;2023-03-18T19:18:52;100648.00;;;11.97;100.00
13367;BME280;6752;52.612;13.630;2023-03-18T19:23:54;100643.09;;;12.11;100.00
13367;BME280;6752;52.612;13.630;2023-03-18T19:28:57;100646.85;;;11.90;100.00
13367;BME280;6752;52.612;13.630;2023-03-18T19:33:59;100650.75;;;12.12;100.00
13367;BME280;6752;52.612;13.630;2023-03-18T19:39:01;100648.97;;;12.12;100.00
13367;BME280;6752;52.612;13.630;2023-03-18T19:44:12;100653.00;;;12.09;100.00
13367;BME280;6752;52.612;13.630;2023-03-18T19:49:13;100656.56;;;12.10;100.00
13367;BME280;6752;52.612;13.630;2023-03-18T19:54:27;100660.45;;;11.93;100.00
13367;BME280;6752;52.612;13.630;2023-03-18T19:59:28;100662.45;;;12.01;100.00
13367;BME280;6752;52.612;13.630;2023-03-18T20:04:30;100670.16;;;11.98;100.00
13367;BME280;6752;52.612;13.630;2023-03-18T20:09:33;100675.27;;;11.85;100.00
13367;BME280;6752;52.612;13.630;2023-03-18T20:14:35;100681.80;;;11.72;100.00
13367;BME280;6752;52.612;13.630;2023-03-18T20:19:37;100687.75;;;11.87;100.00
13367;BME280;6752;52.612;13.630;2023-03-18T20:24:40;100689.89;;;11.82;100.00
13367;BME280;6752;52.612;13.630;2023-03-18T20:29:45;100689.60;;;11.50;100.00
13367;BME280;6752;52.612;13.630;2023-03-18T20:34:48;100686.07;;;11.55;100.00
13367;BME280;6752;52.612;13.630;2023-03-18T20:39:50;100682.67;;;11.69;100.00
13367;BME280;6752;52.612;13.630;2023-03-18T20:44:52;100688.31;;;11.52;100.00
13367;BME280;6752;52.612;13.630;2023-03-18T20:49:55;100696.43;;;11.41;100.00
13367;BME280;6752;52.612;13.630;2023-03-18T20:54:57;100696.12;;;11.49;100.00
13367;BME280;6752;52.612;13.630;2023-03-18T20:59:59;100697.80;;;11.50;100.00
13367;BME280;6752;52.612;13.630;2023-03-18T21:05:02;100699.01;;;11.45;100.00
13367;BME280;6752;52.612;13.630;2023-03-18T21:10:05;100702.95;;;11.40;100.00
13367;BME280;6752;52.612;13.630;2023-03-18T21:15:12;100694.31;;;11.21;100.00
13367;BME280;6752;52.612;13.630;2023-03-18T21:20:11;100687.00;;;11.18;100.00
13367;BME280;6752;52.612;13.630;2023-03-18T21:25:14;100688.97;;;11.08;100.00
13367;BME280;6752;52.612;13.630;2023-03-18T21:30:17;100704.32;;;10.93;100.00
13367;BME280;6752;52.612;13.630;2023-03-18T21:35:20;100713.06;;;10.58;100.00
13367;BME280;6752;52.612;13.630;2023-03-18T21:40:30;100715.47;;;10.15;100.00
13367;BME280;6752;52.612;13.630;2023-03-18T21:45:33;100716.23;;;10.10;100.00
13367;BME280;6752;52.612;13.630;2023-03-18T21:50:38;100714.92;;;10.04;100.00
13367;BME280;6752;52.612;13.630;2023-03-18T21:55:40;100703.19;;;9.77;100.00
13367;BME280;6752;52.612;13.630;2023-03-18T22:00:47;100696.02;;;9.61;100.00
13367;BME280;6752;52.612;13.630;2023-03-18T22:05:49;100702.05;;;9.69;100.00
13367;BME280;6752;52.612;13.630;2023-03-18T22:10:50;100697.25;;;9.65;100.00
13367;BME280;6752;52.612;13.630;2023-03-18T22:15:55;100708.50;;;9.46;100.00
13367;BME280;6752;52.612;13.630;2023-03-18T22:20:57;100708.98;;;9.26;100.00
13367;BME280;6752;52.612;13.630;2023-03-18T22:26:00;100698.73;;;9.08;100.00
13367;BME280;6752;52.612;13.630;2023-03-18T22:31:02;100706.48;;;8.92;100.00
13367;BME280;6752;52.612;13.630;2023-03-18T22:36:04;100713.36;;;8.61;100.00
13367;BME280;6752;52.612;13.630;2023-03-18T22:41:20;100716.29;;;8.70;100.00
13367;BME280;6752;52.612;13.630;2023-03-18T22:46:21;100720.33;;;8.50;100.00
13367;BME280;6752;52.612;13.630;2023-03-18T22:51:25;100727.54;;;8.50;100.00
13367;BME280;6752;52.612;13.630;2023-03-18T22:56:26;100720.02;;;8.45;100.00
13367;BME280;6752;52.612;13.630;2023-03-18T23:01:28;100714.92;;;8.26;100.00
13367;BME280;6752;52.612;13.630;2023-03-18T23:06:31;100716.56;;;8.10;100.00
13367;BME280;6752;52.612;13.630;2023-03-18T23:11:33;100717.45;;;8.04;100.00
13367;BME280;6752;52.612;13.630;2023-03-18T23:16:36;100712.42;;;7.97;100.00
13367;BME280;6752;52.612;13.630;2023-03-18T23:21:41;100716.70;;;7.96;100.00
13367;BME280;6752;52.612;13.630;2023-03-18T23:26:44;100713.06;;;8.03;100.00
13367;BME280;6752;52.612;13.630;2023-03-18T23:31:46;100718.65;;;8.12;100.00
13367;BME280;6752;52.612;13.630;2023-03-18T23:36:52;100714.81;;;7.93;100.00
13367;BME280;6752;52.612;13.630;2023-03-18T23:41:54;100714.00;;;7.75;100.00
13367;BME280;6752;52.612;13.630;2023-03-18T23:46:56;100703.55;;;7.51;100.00
13367;BME280;6752;52.612;13.630;2023-03-18T23:52:03;100710.01;;;7.50;100.00
13367;BME280;6752;52.612;13.630;2023-03-18T23:57:02;100723.59;;;7.71;100.00
